Time;durP1;ratioP1;P1;durP2;ratioP2;P2;SDS_P1;SDS_P2;PMS_P1;PMS_P2;Temp;Humidity;BMP_temperature;BMP_pressure;BME280_temperature;BME280_humidity;BME280_pressure;Samples;Min_cycle;Max_cycle;Signal;HPM_P1;HPM_P2
2022/06/28 00:02:08;;;;;;;7.10;6.40;;;13.90;99.90;;;;;;4914189;29;20407;-76
2022/06/28 00:04:33;;;;;;;8.23;7.40;;;13.90;99.90;;;;;;4917620;29;20154;-78
2022/06/28 00:06:59;;;;;;;8.82;7.65;;;13.90;99.90;;;;;;4908784;29;21270;-78
2022/06/28 00:09:26;;;;;;;8.05;7.25;;;13.80;99.90;;;;;;4918810;29;20091;-78
2022/06/28 00:11:52;;;;;;;10.52;8.48;;;13.80;99.90;;;;;;4913098;29;20761;-78
2022/06/28 00:17:02;;;;;;;8.02;7.22;;;13.70;99.90;;;;;;4917570;29;20062;-77
2022/06/28 00:19:28;;;;;;;12.80;8.27;;;13.70;99.90;;;;;;4925582;29;20751;-78
2022/06/28 00:21:55;;;;;;;9.55;7.65;;;13.60;99.90;;;;;;4916766;29;20047;-79
2022/06/28 00:24:21;;;;;;;10.80;7.60;;;13.60;99.90;;;;;;4924136;29;20143;-79
2022/06/28 00:26:48;;;;;;;9.90;6.93;;;13.60;99.90;;;;;;4912482;29;20058;-79
2022/06/28 00:29:14;;;;;;;9.15;7.50;;;13.50;99.90;;;;;;4920653;29;20131;-77
2022/06/28 00:31:40;;;;;;;8.43;6.68;;;13.50;99.90;;;;;;4916766;29;20060;-79
2022/06/28 00:34:06;;;;;;;11.05;7.00;;;13.50;99.90;;;;;;4913314;29;20176;-78
2022/06/28 00:36:32;;;;;;;10.50;7.90;;;13.50;99.90;;;;;;4927617;29;20055;-79
2022/06/28 00:38:58;;;;;;;10.10;6.57;;;13.50;99.90;;;;;;4911803;29;20051;-79
2022/06/28 00:41:25;;;;;;;9.13;7.72;;;13.40;99.90;;;;;;4904380;29;20055;-79
2022/06/28 00:43:51;;;;;;;10.43;6.63;;;13.40;99.90;;;;;;4915435;29;20059;-79
2022/06/28 00:46:17;;;;;;;8.85;7.25;;;13.40;99.90;;;;;;4915604;29;20464;-79
2022/06/28 00:48:43;;;;;;;9.38;7.78;;;13.30;99.90;;;;;;4917697;29;20052;-79
2022/06/28 00:51:09;;;;;;;8.88;7.40;;;13.30;99.90;;;;;;4915956;29;20055;-78
2022/06/28 00:53:35;;;;;;;9.98;7.60;;;13.30;99.90;;;;;;4917794;29;20062;-77
2022/06/28 00:56:00;;;;;;;8.38;6.25;;;13.30;99.90;;;;;;4916700;29;20047;-76
2022/06/28 00:58:26;;;;;;;6.65;5.95;;;13.30;99.90;;;;;;4914255;28;20087;-78
2022/06/28 01:00:52;;;;;;;9.10;7.40;;;13.30;99.90;;;;;;4921100;29;20058;-79
2022/06/28 01:03:21;;;;;;;11.55;8.00;;;13.30;99.90;;;;;;4911187;29;20109;-79
2022/06/28 01:05:47;;;;;;;7.97;5.80;;;13.30;99.90;;;;;;4921073;29;20060;-79
2022/06/28 01:08:13;;;;;;;9.98;7.85;;;13.20;99.90;;;;;;4915996;28;20110;-79
2022/06/28 01:10:41;;;;;;;8.52;7.43;;;13.20;99.90;;;;;;4921926;29;20052;-76
2022/06/28 01:13:08;;;;;;;9.98;7.88;;;13.20;99.90;;;;;;4927591;29;20082;-79
2022/06/28 01:15:34;;;;;;;9.57;8.20;;;13.20;99.90;;;;;;4924467;28;20779;-79
2022/06/28 01:18:02;;;;;;;8.52;6.90;;;13.20;99.90;;;;;;4922168;29;20051;-79
2022/06/28 01:20:28;;;;;;;10.40;6.57;;;13.20;99.90;;;;;;4919213;29;20051;-79
2022/06/28 01:22:54;;;;;;;9.50;7.15;;;13.20;99.90;;;;;;4922847;28;20054;-77
2022/06/28 01:25:22;;;;;;;8.27;6.40;;;13.20;99.90;;;;;;4924262;29;20056;-79
2022/06/28 01:27:49;;;;;;;9.88;7.00;;;13.10;99.90;;;;;;4916256;28;20063;-79
2022/06/28 01:30:15;;;;;;;9.68;7.22;;;13.10;99.90;;;;;;4926137;29;20063;-78
2022/06/28 01:32:41;;;;;;;10.93;7.50;;;13.10;99.90;;;;;;4927118;29;20055;-78
2022/06/28 01:35:09;;;;;;;7.53;6.60;;;13.10;99.90;;;;;;4924479;29;20044;-79
2022/06/28 01:37:35;;;;;;;7.18;6.47;;;13.10;99.90;;;;;;4927469;29;20781;-78
2022/06/28 01:40:03;;;;;;;8.57;7.47;;;13.10;99.90;;;;;;4913949;29;20091;-79
2022/06/28 01:42:29;;;;;;;11.18;7.90;;;13.00;99.90;;;;;;4912690;29;20048;-79
2022/06/28 01:44:57;;;;;;;8.38;7.55;;;13.00;99.90;;;;;;4920814;29;20051;-78
2022/06/28 01:47:27;;;;;;;8.20;6.20;;;13.00;99.90;;;;;;4930440;28;20040;-77
2022/06/28 01:49:53;;;;;;;9.00;7.53;;;13.00;99.90;;;;;;4922498;29;20115;-77
2022/06/28 01:52:20;;;;;;;8.65;6.75;;;13.00;99.90;;;;;;4919186;29;20364;-78
2022/06/28 01:54:46;;;;;;;10.32;7.93;;;12.90;99.90;;;;;;4922965;29;20056;-78
2022/06/28 01:57:12;;;;;;;13.80;6.40;;;12.90;99.90;;;;;;4911840;29;20164;-79
2022/06/28 01:59:39;;;;;;;10.82;7.05;;;12.80;99.90;;;;;;4936100;28;20594;-80
2022/06/28 02:02:05;;;;;;;8.63;6.97;;;12.80;99.90;;;;;;4939630;28;20407;-77
2022/06/28 02:04:31;;;;;;;11.68;7.68;;;12.80;99.90;;;;;;4922870;29;20043;-78
2022/06/28 02:06:58;;;;;;;12.02;8.20;;;12.80;99.90;;;;;;4921439;29;20070;-77
2022/06/28 02:09:24;;;;;;;8.80;7.28;;;12.80;99.90;;;;;;4905608;29;20094;-78
2022/06/28 02:11:51;;;;;;;9.13;7.10;;;12.80;99.90;;;;;;4922371;29;20102;-78
2022/06/28 02:14:17;;;;;;;9.68;6.70;;;12.80;99.90;;;;;;4928056;29;20050;-79
2022/06/28 02:16:43;;;;;;;9.88;7.85;;;12.80;99.90;;;;;;4922885;29;20129;-77
2022/06/28 02:19:09;;;;;;;8.65;7.28;;;12.80;99.90;;;;;;4916588;29;20075;-78
2022/06/28 02:21:40;;;;;;;10.40;6.88;;;13.00;99.90;;;;;;4906515;29;20085;-77
2022/06/28 02:24:07;;;;;;;9.68;6.53;;;12.80;99.90;;;;;;4918123;29;20224;-78
2022/06/28 02:26:34;;;;;;;8.85;7.35;;;12.70;99.90;;;;;;4919365;29;20090;-77
2022/06/28 02:29:00;;;;;;;9.23;6.65;;;12.70;99.90;;;;;;4910178;29;20688;-77
2022/06/28 02:31:27;;;;;;;10.10;8.82;;;12.70;99.90;;;;;;4911212;29;20098;-77
2022/06/28 02:33:53;;;;;;;15.18;8.40;;;12.70;99.90;;;;;;4925528;29;20111;-79
2022/06/28 02:41:41;;;;;;;9.38;7.53;;;12.60;99.90;;;;;;4912893;29;20150;-77
2022/06/28 02:44:07;;;;;;;8.07;6.32;;;12.60;99.90;;;;;;4930221;29;20638;-78
2022/06/28 02:46:33;;;;;;;9.32;7.20;;;12.60;99.90;;;;;;4921406;29;20098;-76
2022/06/28 02:48:58;;;;;;;8.43;7.47;;;12.70;99.90;;;;;;4932708;29;20043;-77
2022/06/28 02:51:24;;;;;;;6.07;5.40;;;12.60;99.90;;;;;;4942793;29;20043;-78
2022/06/28 02:53:52;;;;;;;8.30;7.28;;;12.60;99.90;;;;;;4928406;29;20162;-77
2022/06/28 02:56:18;;;;;;;11.10;8.05;;;12.60;99.90;;;;;;4935567;29;20059;-76
2022/06/28 02:58:44;;;;;;;9.98;8.07;;;12.50;99.90;;;;;;4941217;29;20047;-77
2022/06/28 03:01:10;;;;;;;9.07;7.97;;;12.60;99.90;;;;;;4943074;29;20423;-76
2022/06/28 03:03:36;;;;;;;9.82;8.07;;;12.50;99.90;;;;;;4943440;29;20035;-77
2022/06/28 03:06:02;;;;;;;8.55;7.38;;;12.50;99.90;;;;;;4935047;29;20227;-76
2022/06/28 03:08:28;;;;;;;8.35;7.40;;;12.60;99.90;;;;;;4938638;29;20103;-77
2022/06/28 03:10:53;;;;;;;10.82;7.88;;;12.50;99.90;;;;;;4942406;29;20396;-76
2022/06/28 03:13:19;;;;;;;6.82;6.18;;;12.50;99.90;;;;;;4943975;29;20059;-76
2022/06/28 03:15:45;;;;;;;9.27;7.00;;;12.50;99.90;;;;;;4936733;29;20053;-76
2022/06/28 03:18:10;;;;;;;8.60;7.60;;;12.50;99.90;;;;;;4943986;29;20048;-77
2022/06/28 03:20:36;;;;;;;10.85;6.85;;;12.50;99.90;;;;;;4941198;28;20300;-77
2022/06/28 03:23:02;;;;;;;9.20;6.75;;;12.50;99.90;;;;;;4943867;29;20119;-76
2022/06/28 03:25:28;;;;;;;10.98;7.47;;;12.40;99.90;;;;;;4941760;29;20064;-76
2022/06/28 03:27:54;;;;;;;9.77;6.80;;;12.40;99.90;;;;;;4931776;29;20071;-77
2022/06/28 03:30:20;;;;;;;11.93;8.40;;;12.40;99.90;;;;;;4938188;29;20066;-77
2022/06/28 03:32:45;;;;;;;9.10;6.22;;;12.40;99.90;;;;;;4934549;29;20040;-79
2022/06/28 03:35:11;;;;;;;8.63;6.68;;;12.40;99.90;;;;;;4930233;29;20080;-79
2022/06/28 03:37:37;;;;;;;11.48;7.47;;;12.40;99.90;;;;;;4943753;29;20043;-76
2022/06/28 03:40:04;;;;;;;11.23;6.78;;;12.40;99.90;;;;;;4941969;29;20371;-76
2022/06/28 03:42:29;;;;;;;11.57;8.38;;;12.40;99.90;;;;;;4943165;29;20262;-76
2022/06/28 03:44:55;;;;;;;8.25;6.88;;;12.30;99.90;;;;;;4940169;29;20055;-76
2022/06/28 03:47:21;;;;;;;9.40;8.27;;;12.40;99.90;;;;;;4943313;29;20028;-77
2022/06/28 03:49:49;;;;;;;10.90;8.32;;;12.40;99.90;;;;;;4945174;29;20048;-76
2022/06/28 03:52:16;;;;;;;11.15;8.27;;;12.40;99.90;;;;;;4942381;29;20071;-77
2022/06/28 03:54:41;;;;;;;8.27;6.65;;;12.40;99.90;;;;;;4927350;29;20083;-76
2022/06/28 03:57:07;;;;;;;6.97;6.18;;;12.50;99.90;;;;;;4946770;29;20044;-76
2022/06/28 03:59:33;;;;;;;10.63;9.25;;;12.50;99.90;;;;;;4944817;28;20040;-76
2022/06/28 04:01:58;;;;;;;11.40;7.88;;;12.50;99.90;;;;;;4936985;29;20071;-77
2022/06/28 04:04:24;;;;;;;9.07;6.97;;;12.60;99.90;;;;;;4934140;29;20058;-76
2022/06/28 04:06:50;;;;;;;9.43;6.60;;;12.60;99.90;;;;;;4946102;29;20071;-76
2022/06/28 04:09:17;;;;;;;7.70;6.90;;;12.70;99.90;;;;;;4947870;29;20052;-76
2022/06/28 04:11:43;;;;;;;10.57;7.80;;;12.70;99.90;;;;;;4940955;28;20031;-76
2022/06/28 04:14:13;;;;;;;9.70;7.25;;;12.70;99.90;;;;;;4930842;29;20040;-76
2022/06/28 04:16:40;;;;;;;8.50;7.65;;;12.70;99.90;;;;;;4943472;29;20090;-76
2022/06/28 04:19:07;;;;;;;9.80;7.28;;;12.70;99.90;;;;;;4941270;29;20083;-76
2022/06/28 04:21:33;;;;;;;7.95;6.82;;;12.70;99.90;;;;;;4943235;29;20060;-76
2022/06/28 04:23:58;;;;;;;10.82;8.38;;;12.70;99.90;;;;;;4946147;29;20117;-76
2022/06/28 04:26:24;;;;;;;10.13;9.07;;;12.80;99.90;;;;;;4933531;29;20400;-77
2022/06/28 04:28:50;;;;;;;10.38;8.93;;;12.80;99.90;;;;;;4935753;29;20166;-79
2022/06/28 04:31:16;;;;;;;9.68;7.32;;;12.90;99.90;;;;;;4922784;29;20512;-79
2022/06/28 04:33:42;;;;;;;9.95;7.55;;;12.90;99.90;;;;;;4932779;29;20566;-78
2022/06/28 04:36:08;;;;;;;9.68;8.50;;;12.90;99.90;;;;;;4927216;29;20051;-79
2022/06/28 04:38:33;;;;;;;10.00;8.35;;;12.90;99.90;;;;;;4925706;29;20086;-78
2022/06/28 04:40:59;;;;;;;10.45;8.18;;;13.00;99.90;;;;;;4930279;29;20267;-79
2022/06/28 04:43:25;;;;;;;11.50;8.95;;;13.10;99.90;;;;;;4928069;29;20051;-79
2022/06/28 04:45:51;;;;;;;11.55;9.70;;;13.10;99.90;;;;;;4925551;29;20051;-79
2022/06/28 04:48:16;;;;;;;12.15;8.27;;;13.20;99.90;;;;;;4927064;29;20495;-79
2022/06/28 04:50:42;;;;;;;11.63;9.00;;;13.20;99.90;;;;;;4931597;29;20047;-78
2022/06/28 04:53:08;;;;;;;8.93;7.75;;;13.30;99.90;;;;;;4931746;29;20190;-79
2022/06/28 04:55:33;;;;;;;10.90;9.45;;;13.30;99.90;;;;;;4922635;29;20063;-79
2022/06/28 04:57:59;;;;;;;11.60;8.55;;;13.40;99.90;;;;;;4935859;28;20122;-80
2022/06/28 05:00:25;;;;;;;11.32;8.60;;;13.40;99.90;;;;;;4925334;29;20496;-79
2022/06/28 05:02:50;;;;;;;11.90;8.38;;;13.40;99.90;;;;;;4927968;29;20050;-80
2022/06/28 05:05:16;;;;;;;14.32;8.63;;;13.50;99.90;;;;;;4930833;29;20051;-80
2022/06/28 05:07:42;;;;;;;10.65;8.32;;;13.60;99.90;;;;;;4917927;29;20051;-80
2022/06/28 05:10:08;;;;;;;11.15;8.45;;;13.60;99.90;;;;;;4920317;29;20051;-80
2022/06/28 05:12:33;;;;;;;10.15;7.65;;;13.70;99.90;;;;;;4917255;29;20249;-81
2022/06/28 05:14:59;;;;;;;11.80;8.10;;;13.70;99.90;;;;;;4925845;29;20054;-80
2022/06/28 05:17:25;;;;;;;8.50;6.88;;;13.70;99.90;;;;;;4921526;29;20130;-79
2022/06/28 05:19:51;;;;;;;13.40;8.80;;;13.90;99.90;;;;;;4926069;29;20135;-80
2022/06/28 05:22:16;;;;;;;11.70;8.57;;;13.90;99.90;;;;;;4924985;29;20214;-80
2022/06/28 05:24:42;;;;;;;10.90;6.70;;;14.00;99.90;;;;;;4917057;29;20157;-80
2022/06/28 05:27:08;;;;;;;10.57;7.55;;;14.20;99.90;;;;;;4922584;29;20055;-77
2022/06/28 05:29:34;;;;;;;12.73;7.80;;;14.20;99.90;;;;;;4923296;29;20052;-79
2022/06/28 05:32:00;;;;;;;10.15;7.72;;;14.30;99.90;;;;;;4923942;29;20071;-79
2022/06/28 05:34:25;;;;;;;9.40;8.40;;;14.40;99.90;;;;;;4924125;29;20690;-80
2022/06/28 05:36:51;;;;;;;11.27;7.00;;;14.40;99.90;;;;;;4922341;29;20047;-79
2022/06/28 05:39:17;;;;;;;8.85;6.93;;;14.50;99.90;;;;;;4926001;29;20134;-80
2022/06/28 05:41:43;;;;;;;10.57;7.43;;;14.60;99.90;;;;;;4922799;29;20082;-80
2022/06/28 05:44:10;;;;;;;11.75;7.82;;;14.70;99.90;;;;;;4918039;29;20151;-80
2022/06/28 05:46:36;;;;;;;7.93;6.50;;;14.90;99.90;;;;;;4924611;29;20055;-79
2022/06/28 05:49:02;;;;;;;10.15;6.20;;;15.10;99.90;;;;;;4922377;29;20079;-80
2022/06/28 05:51:29;;;;;;;8.50;6.53;;;15.30;99.90;;;;;;4921216;29;20167;-78
2022/06/28 05:53:58;;;;;;;8.82;6.13;;;15.50;99.90;;;;;;4919038;29;20131;-79
2022/06/28 05:56:24;;;;;;;9.75;6.32;;;15.70;99.90;;;;;;4918752;29;20048;-80
2022/06/28 05:58:49;;;;;;;9.43;6.40;;;15.80;99.90;;;;;;4908767;29;20551;-80
2022/06/28 06:01:15;;;;;;;6.30;5.38;;;15.70;99.90;;;;;;4914886;29;20055;-79
2022/06/28 06:03:41;;;;;;;8.18;6.15;;;15.80;99.90;;;;;;4918700;29;20127;-80
2022/06/28 06:06:07;;;;;;;6.57;5.80;;;15.80;99.90;;;;;;4911481;29;20043;-79
2022/06/28 06:08:35;;;;;;;10.23;6.30;;;15.70;99.90;;;;;;4909261;29;20616;-77
2022/06/28 06:11:02;;;;;;;12.45;6.55;;;15.80;99.90;;;;;;4902918;29;20055;-79
2022/06/28 06:13:28;;;;;;;6.97;5.53;;;15.90;99.90;;;;;;4906440;29;20091;-78
2022/06/28 06:15:54;;;;;;;6.85;5.20;;;16.00;99.90;;;;;;4914374;29;20150;-79
2022/06/28 06:18:20;;;;;;;5.93;5.10;;;16.30;99.90;;;;;;4904340;29;20162;-79
2022/06/28 06:20:46;;;;;;;11.68;6.00;;;16.60;99.90;;;;;;4915024;29;20051;-79
2022/06/28 06:23:12;;;;;;;6.85;4.75;;;16.90;99.90;;;;;;4913110;29;20934;-78
2022/06/28 06:25:37;;;;;;;6.78;5.35;;;17.00;99.90;;;;;;4907827;29;20072;-78
2022/06/28 06:28:03;;;;;;;11.02;5.55;;;17.00;99.90;;;;;;4911257;29;20048;-78
2022/06/28 06:30:29;;;;;;;8.85;5.45;;;17.00;99.90;;;;;;4907474;28;20114;-77
2022/06/28 06:32:55;;;;;;;6.40;4.93;;;17.10;99.90;;;;;;4907793;29;20050;-77
2022/06/28 06:35:20;;;;;;;6.57;5.97;;;17.00;99.90;;;;;;4931067;28;20052;-79
2022/06/28 06:37:46;;;;;;;6.10;4.43;;;17.10;99.90;;;;;;4917010;29;20057;-79
2022/06/28 06:40:12;;;;;;;9.90;4.38;;;17.50;99.90;;;;;;4908955;29;20143;-79
2022/06/28 06:42:38;;;;;;;7.47;4.60;;;18.40;99.90;;;;;;4908654;29;20039;-79
2022/06/28 06:45:04;;;;;;;8.60;4.93;;;19.20;99.90;;;;;;4913030;29;20064;-80
2022/06/28 06:47:30;;;;;;;6.68;4.28;;;20.10;99.90;;;;;;4912374;29;20158;-80
2022/06/28 06:49:56;;;;;;;5.63;4.03;;;21.00;99.90;;;;;;4910464;29;20386;-80
2022/06/28 06:52:21;;;;;;;8.18;4.63;;;21.20;99.90;;;;;;4908199;29;20111;-80
2022/06/28 06:54:47;;;;;;;5.18;3.50;;;21.80;99.90;;;;;;4905155;29;20123;-79
2022/06/28 06:57:15;;;;;;;5.57;3.85;;;22.70;99.90;;;;;;4906507;29;20067;-77
2022/06/28 06:59:41;;;;;;;4.78;3.72;;;23.20;99.90;;;;;;4908725;29;20063;-79
2022/06/28 07:02:06;;;;;;;8.13;3.55;;;23.60;99.90;;;;;;4917973;28;20050;-80
2022/06/28 07:04:32;;;;;;;5.97;2.83;;;24.30;99.90;;;;;;4914418;29;20088;-80
2022/06/28 07:06:58;;;;;;;6.63;3.83;;;24.90;99.90;;;;;;4905743;29;20078;-81
2022/06/28 07:09:24;;;;;;;8.68;3.58;;;25.30;99.90;;;;;;4913609;29;20060;-78
2022/06/28 07:11:50;;;;;;;5.15;2.70;;;25.40;99.90;;;;;;4927742;28;20054;-81
2022/06/28 07:14:16;;;;;;;4.63;3.15;;;25.80;99.90;;;;;;4912341;29;20076;-81
2022/06/28 07:16:41;;;;;;;8.02;3.70;;;26.00;99.90;;;;;;4920318;29;20628;-82
2022/06/28 07:19:07;;;;;;;7.43;3.33;;;26.30;99.90;;;;;;4916169;29;20048;-80
2022/06/28 07:21:32;;;;;;;9.07;3.65;;;26.70;99.90;;;;;;4908053;29;20051;-81
2022/06/28 07:23:58;;;;;;;2.58;2.28;;;26.80;99.90;;;;;;4908112;29;20056;-81
2022/06/28 07:26:24;;;;;;;6.90;4.35;;;26.90;99.90;;;;;;4908077;29;20071;-82
2022/06/28 07:28:50;;;;;;;5.75;3.20;;;26.90;99.90;;;;;;4915728;29;20052;-81
2022/06/28 07:31:15;;;;;;;5.53;2.90;;;27.20;99.90;;;;;;4911630;29;20051;-81
2022/06/28 07:33:42;;;;;;;5.18;2.70;;;27.30;99.90;;;;;;4906080;29;20408;-82
2022/06/28 07:36:08;;;;;;;2.80;2.30;;;26.50;99.90;;;;;;4912989;29;20090;-79
2022/06/28 07:38:34;;;;;;;3.35;2.35;;;26.00;99.90;;;;;;4908342;29;20146;-81
2022/06/28 07:41:00;;;;;;;5.57;3.15;;;26.10;99.90;;;;;;4909668;29;20165;-78
2022/06/28 07:43:26;;;;;;;8.05;2.55;;;26.00;99.90;;;;;;4906482;29;20052;-81
2022/06/28 07:45:52;;;;;;;5.57;2.80;;;25.60;99.90;;;;;;4924035;28;20056;-83
2022/06/28 07:48:19;;;;;;;5.35;2.35;;;25.40;99.90;;;;;;4933924;28;20047;-82
2022/06/28 07:53:33;;;;;;;6.78;2.90;;;25.80;99.90;;;;;;4912312;29;20061;-80
2022/06/28 07:55:59;;;;;;;4.25;2.67;;;25.60;99.90;;;;;;4912797;29;20052;-79
2022/06/28 07:58:25;;;;;;;6.03;1.90;;;25.10;99.90;;;;;;4917184;29;20060;-80
2022/06/28 08:00:51;;;;;;;3.65;2.13;;;24.70;99.90;;;;;;4912191;29;20063;-79
2022/06/28 08:03:17;;;;;;;6.10;2.85;;;24.50;99.90;;;;;;4916984;29;20055;-79
2022/06/28 08:05:43;;;;;;;7.45;2.20;;;24.20;99.90;;;;;;4909202;29;20076;-78
2022/06/28 08:08:10;;;;;;;5.00;2.40;;;24.40;99.90;;;;;;4913230;29;20052;-79
2022/06/28 08:10:36;;;;;;;4.47;1.75;;;24.20;99.90;;;;;;4916574;29;20063;-80
2022/06/28 08:13:02;;;;;;;6.82;2.00;;;23.70;99.90;;;;;;4914111;29;20048;-80
2022/06/28 08:15:28;;;;;;;6.05;2.67;;;24.20;99.90;;;;;;4922087;29;20059;-80
2022/06/28 08:17:54;;;;;;;3.58;2.08;;;24.70;99.60;;;;;;4925637;29;20574;-79
2022/06/28 08:20:21;;;;;;;3.17;1.95;;;25.40;98.40;;;;;;4909900;29;20056;-80
2022/06/28 08:22:46;;;;;;;2.97;1.95;;;25.60;97.00;;;;;;4925215;29;20379;-80
2022/06/28 08:25:12;;;;;;;5.15;1.83;;;25.20;98.60;;;;;;4914600;29;20489;-80
2022/06/28 08:27:38;;;;;;;3.03;1.65;;;24.70;99.10;;;;;;4920861;29;20051;-80
2022/06/28 08:30:06;;;;;;;7.70;1.90;;;23.90;99.40;;;;;;4923665;29;20047;-80
2022/06/28 08:32:31;;;;;;;3.60;1.83;;;24.00;99.90;;;;;;4922410;29;20122;-77
2022/06/28 08:34:57;;;;;;;7.85;2.20;;;24.10;99.80;;;;;;4914455;29;20048;-78
2022/06/28 08:37:23;;;;;;;2.55;1.60;;;24.20;99.40;;;;;;4907787;29;20035;-77
2022/06/28 08:39:49;;;;;;;5.30;1.98;;;24.00;99.50;;;;;;4922483;29;20594;-79
2022/06/28 08:42:25;;;;;;;4.50;1.67;;;23.60;99.90;;;;;;4923177;29;20085;-78
2022/06/28 08:44:52;;;;;;;12.48;2.78;;;23.00;97.70;;;;;;4916320;29;20047;-79
2022/06/28 08:47:20;;;;;;;3.10;1.50;;;23.00;99.90;;;;;;4921089;29;20055;-78
2022/06/28 08:50:00;;;;;;;3.42;1.90;;;23.10;99.90;;;;;;4910390;29;20056;-78
2022/06/28 08:52:26;;;;;;;9.27;2.60;;;23.70;97.90;;;;;;4912575;29;20047;-78
2022/06/28 08:54:52;;;;;;;6.70;2.05;;;23.40;99.90;;;;;;4922840;29;20060;-78
2022/06/28 08:57:19;;;;;;;3.63;1.85;;;23.00;99.90;;;;;;4921050;29;20050;-78
2022/06/28 08:59:46;;;;;;;3.15;1.63;;;23.20;99.90;;;;;;4920916;29;20458;-79
2022/06/28 09:02:14;;;;;;;5.13;2.00;;;23.10;99.90;;;;;;4905034;29;20198;-78
2022/06/28 09:04:46;;;;;;;3.47;1.40;;;23.70;99.50;;;;;;4915143;29;20048;-79
2022/06/28 09:07:11;;;;;;;4.22;1.50;;;24.80;98.70;;;;;;4915263;29;20054;-79
2022/06/28 09:09:37;;;;;;;3.08;2.00;;;25.60;97.60;;;;;;4915393;29;20044;-78
2022/06/28 09:12:03;;;;;;;5.38;1.63;;;26.00;96.70;;;;;;4915973;29;20587;-77
2022/06/28 09:14:35;;;;;;;3.80;1.67;;;26.60;96.20;;;;;;4916103;29;20052;-77
2022/06/28 09:17:20;;;;;;;5.85;2.25;;;26.80;94.50;;;;;;4919167;29;20066;-78
2022/06/28 09:19:46;;;;;;;4.15;1.67;;;27.40;92.40;;;;;;4924503;29;20051;-79
2022/06/28 09:22:30;;;;;;;3.63;1.63;;;27.40;92.60;;;;;;4921984;29;20063;-76
2022/06/28 09:24:57;;;;;;;2.88;1.30;;;27.60;91.60;;;;;;4929508;28;20055;-77
2022/06/28 09:27:31;;;;;;;4.15;1.63;;;27.90;94.00;;;;;;4920324;29;20134;-77
2022/06/28 09:29:58;;;;;;;2.78;1.58;;;27.90;90.40;;;;;;4922326;28;20098;-77
2022/06/28 09:32:32;;;;;;;8.35;2.55;;;27.80;92.60;;;;;;4922661;29;20067;-77
2022/06/28 09:34:58;;;;;;;3.47;1.73;;;27.10;90.10;;;;;;4920104;29;20063;-77
2022/06/28 09:37:36;;;;;;;3.50;1.58;;;26.50;92.50;;;;;;4932855;28;20121;-76
2022/06/28 09:40:09;;;;;;;6.22;2.10;;;26.00;91.30;;;;;;4921120;29;20052;-76
2022/06/28 09:42:35;;;;;;;6.60;2.35;;;25.60;91.90;;;;;;4923589;29;20138;-77
2022/06/28 09:45:00;;;;;;;4.22;1.50;;;25.20;93.90;;;;;;4919613;29;20082;-77
2022/06/28 09:47:26;;;;;;;2.70;1.55;;;24.90;94.10;;;;;;4921416;29;20484;-77
2022/06/28 09:49:52;;;;;;;3.60;1.90;;;24.90;94.10;;;;;;4920610;29;20051;-77
2022/06/28 09:52:22;;;;;;;4.78;1.65;;;24.80;94.00;;;;;;4916877;29;20048;-78
2022/06/28 09:54:54;;;;;;;2.80;1.67;;;24.60;93.30;;;;;;4919542;29;20048;-77
2022/06/28 09:57:21;;;;;;;4.93;2.40;;;24.30;92.90;;;;;;4912879;29;20964;-76
2022/06/28 09:59:47;;;;;;;2.47;1.27;;;24.00;93.40;;;;;;4915749;29;20122;-77
2022/06/28 10:02:16;;;;;;;4.88;1.58;;;23.70;93.20;;;;;;4913927;29;20332;-76
2022/06/28 10:04:43;;;;;;;5.85;1.83;;;23.40;93.50;;;;;;4921669;29;20854;-78
2022/06/28 10:07:10;;;;;;;5.55;1.90;;;23.20;94.40;;;;;;4909631;29;20153;-78
2022/06/28 10:09:37;;;;;;;2.28;1.60;;;23.40;94.90;;;;;;4920981;29;20051;-77
2022/06/28 10:15:01;;;;;;;3.45;1.40;;;24.70;94.60;;;;;;4916445;29;20064;-78
2022/06/28 10:17:56;;;;;;;6.05;1.95;;;24.70;92.90;;;;;;4934645;28;20127;-81
2022/06/28 10:20:34;;;;;;;3.33;1.50;;;24.10;91.20;;;;;;4924474;29;20047;-79
2022/06/28 10:23:34;;;;;;;6.60;1.60;;;24.40;93.30;;;;;;4922023;29;20083;-76
2022/06/28 10:26:19;;;;;;;4.05;1.38;;;25.00;94.30;;;;;;4927926;29;20087;-76
2022/06/28 10:28:59;;;;;;;3.20;1.70;;;25.00;91.30;;;;;;4938982;29;20059;-78
2022/06/28 10:31:25;;;;;;;4.95;1.40;;;25.00;93.80;;;;;;4921623;29;20056;-77
2022/06/28 10:33:53;;;;;;;4.93;1.92;;;25.40;95.00;;;;;;4920382;29;20040;-77
2022/06/28 10:36:21;;;;;;;4.30;1.63;;;25.40;93.60;;;;;;4922590;29;20395;-77
2022/06/28 10:39:09;;;;;;;4.07;1.70;;;25.20;92.90;;;;;;4919313;29;20051;-77
2022/06/28 10:41:45;;;;;;;1.90;1.25;;;25.30;91.10;;;;;;4921582;29;20130;-77
2022/06/28 10:44:42;;;;;;;7.88;1.90;;;25.40;92.00;;;;;;4920973;29;20059;-78
2022/06/28 10:47:07;;;;;;;5.80;1.42;;;25.60;92.60;;;;;;4916022;29;20147;-77
2022/06/28 10:49:45;;;;;;;2.65;1.48;;;26.20;93.70;;;;;;4914696;29;20051;-77
2022/06/28 10:52:14;;;;;;;5.85;1.65;;;26.40;90.80;;;;;;4915572;29;20056;-77
2022/06/28 10:55:09;;;;;;;3.55;1.58;;;26.30;92.70;;;;;;4921170;29;20056;-77
2022/06/28 10:57:41;;;;;;;2.97;1.50;;;25.90;92.90;;;;;;4906119;29;20095;-77
2022/06/28 11:00:08;;;;;;;4.38;1.50;;;25.60;91.90;;;;;;4918680;29;20075;-77
2022/06/28 11:02:59;;;;;;;3.08;1.60;;;25.50;93.10;;;;;;4913212;29;20130;-77
2022/06/28 11:05:52;;;;;;;4.57;1.40;;;25.10;90.90;;;;;;4915334;29;20043;-77
2022/06/28 11:08:35;;;;;;;5.32;1.70;;;24.90;90.40;;;;;;4914534;28;20369;-77
2022/06/28 11:11:03;;;;;;;7.07;1.80;;;24.80;90.50;;;;;;4914282;29;20051;-78
2022/06/28 11:13:29;;;;;;;1.90;1.50;;;24.80;91.70;;;;;;4917233;29;20051;-77
2022/06/28 11:15:55;;;;;;;6.30;2.13;;;24.80;93.00;;;;;;4914044;29;20430;-77
2022/06/28 11:18:24;;;;;;;2.65;1.50;;;24.90;92.00;;;;;;4913785;29;20388;-76
2022/06/28 11:20:53;;;;;;;4.57;2.17;;;24.90;92.40;;;;;;4912349;29;20399;-76
2022/06/28 11:23:25;;;;;;;3.45;1.42;;;25.00;91.60;;;;;;4911800;29;20564;-77
2022/06/28 11:28:59;;;;;;;3.55;1.38;;;24.90;92.30;;;;;;4908175;29;20089;-77
2022/06/28 11:31:25;;;;;;;5.18;1.40;;;24.80;90.60;;;;;;4907458;29;20139;-76
2022/06/28 11:33:51;;;;;;;2.67;1.08;;;24.70;91.00;;;;;;4911129;29;20134;-77
2022/06/28 11:36:24;;;;;;;2.58;1.55;;;24.80;91.20;;;;;;4918260;29;20047;-76
2022/06/28 11:38:50;;;;;;;2.63;1.38;;;24.90;90.10;;;;;;4911292;29;20261;-76
2022/06/28 11:41:32;;;;;;;4.18;1.55;;;24.80;90.60;;;;;;4907566;29;20137;-76
2022/06/28 11:43:59;;;;;;;4.95;1.73;;;24.90;86.30;;;;;;4914650;29;20139;-76
2022/06/28 11:46:26;;;;;;;5.25;2.30;;;24.70;90.10;;;;;;4912332;29;20150;-76
2022/06/28 11:48:52;;;;;;;1.98;1.33;;;24.60;90.80;;;;;;4917429;28;20051;-76
2022/06/28 11:51:30;;;;;;;3.15;1.30;;;24.70;91.30;;;;;;4902108;29;20115;-76
2022/06/28 11:53:56;;;;;;;3.08;1.52;;;24.90;88.10;;;;;;4910288;29;20147;-76
2022/06/28 11:56:21;;;;;;;2.85;1.50;;;24.70;90.40;;;;;;4907103;28;20115;-76
2022/06/28 11:58:47;;;;;;;6.30;1.90;;;24.60;91.10;;;;;;4906286;29;20044;-75
2022/06/28 12:01:14;;;;;;;2.97;1.73;;;24.40;90.30;;;;;;4903047;29;20139;-75
2022/06/28 12:03:42;;;;;;;3.85;1.63;;;24.30;90.10;;;;;;4911856;29;20497;-75
2022/06/28 12:06:19;;;;;;;3.28;1.38;;;24.50;91.10;;;;;;4907039;29;20079;-75
2022/06/28 12:08:49;;;;;;;2.38;1.15;;;24.50;90.80;;;;;;4904029;29;20046;-75
2022/06/28 12:11:53;;;;;;;4.38;1.52;;;24.70;90.00;;;;;;4910324;29;20055;-75
2022/06/28 12:14:32;;;;;;;2.75;1.27;;;24.70;89.80;;;;;;4919880;28;20059;-75
2022/06/28 12:17:03;;;;;;;4.72;1.15;;;24.60;89.30;;;;;;4912680;29;20122;-75
2022/06/28 12:19:31;;;;;;;2.50;1.20;;;24.80;89.10;;;;;;4911813;29;20047;-74
2022/06/28 12:22:05;;;;;;;4.05;1.00;;;25.00;87.70;;;;;;4918491;29;20080;-75
2022/06/28 12:24:44;;;;;;;2.67;1.20;;;25.20;87.60;;;;;;4904635;29;20166;-74
2022/06/28 12:27:18;;;;;;;1.65;1.45;;;25.40;86.60;;;;;;4903830;29;20051;-74
2022/06/28 12:29:44;;;;;;;3.35;1.23;;;25.50;87.00;;;;;;4910533;29;20856;-74
2022/06/28 12:32:11;;;;;;;1.13;0.90;;;25.60;85.90;;;;;;4908369;29;20055;-74
2022/06/28 12:34:40;;;;;;;4.00;1.27;;;25.70;83.00;;;;;;4907619;29;20122;-74
2022/06/28 12:37:06;;;;;;;3.90;1.10;;;25.80;85.80;;;;;;4908710;29;20499;-75
2022/06/28 12:39:32;;;;;;;4.68;1.45;;;25.60;85.10;;;;;;4928979;28;20419;-74
2022/06/28 12:41:57;;;;;;;4.32;1.30;;;25.30;85.50;;;;;;4925913;29;20132;-74
2022/06/28 12:44:23;;;;;;;2.17;1.10;;;25.30;88.30;;;;;;4915235;29;20539;-74
2022/06/28 12:46:51;;;;;;;2.42;0.90;;;25.00;86.60;;;;;;4927267;29;20590;-74
2022/06/28 12:49:18;;;;;;;3.67;1.17;;;25.00;85.40;;;;;;4930130;28;20055;-74
2022/06/28 12:51:43;;;;;;;2.08;0.93;;;25.30;87.70;;;;;;4917651;28;20524;-76
2022/06/28 12:54:09;;;;;;;1.48;0.90;;;25.60;85.90;;;;;;4916285;29;20039;-75
2022/06/28 12:56:35;;;;;;;2.97;1.10;;;25.80;85.10;;;;;;4926151;29;20525;-75
2022/06/28 12:59:00;;;;;;;3.45;1.13;;;25.90;84.40;;;;;;4909956;29;20060;-75
2022/06/28 13:01:26;;;;;;;1.38;1.02;;;26.00;83.90;;;;;;4893690;29;20052;-75
2022/06/28 13:03:52;;;;;;;2.80;0.95;;;26.10;84.70;;;;;;4912724;29;20063;-75
2022/06/28 13:06:18;;;;;;;1.27;1.10;;;26.10;82.50;;;;;;4913111;29;20048;-75